sensor_id;sensor_type;location;lat;lon;timestamp;temperature;humidity
31967;DHT22;18496;52.042;6.812;2023-06-14T00:00:10;28.00;39.90
31967;DHT22;18496;52.042;6.812;2023-06-14T00:02:15;27.90;41.40
31967;DHT22;18496;52.042;6.812;2023-06-14T00:04:19;27.90;40.30
31967;DHT22;18496;52.042;6.812;2023-06-14T00:06:24;27.80;39.70
31967;DHT22;18496;52.042;6.812;2023-06-14T00:08:27;27.70;40.50
31967;DHT22;18496;52.042;6.812;2023-06-14T00:10:31;27.70;41.40
31967;DHT22;18496;52.042;6.812;2023-06-14T00:12:38;27.70;41.00
31967;DHT22;18496;52.042;6.812;2023-06-14T00:14:41;27.60;40.00
31967;DHT22;18496;52.042;6.812;2023-06-14T00:16:45;27.60;41.40
31967;DHT22;18496;52.042;6.812;2023-06-14T00:18:49;27.50;41.10
31967;DHT22;18496;52.042;6.812;2023-06-14T00:20:55;27.40;40.70
31967;DHT22;18496;52.042;6.812;2023-06-14T00:23:00;27.40;40.70
31967;DHT22;18496;52.042;6.812;2023-06-14T00:25:04;27.40;40.60
31967;DHT22;18496;52.042;6.812;2023-06-14T00:27:08;27.30;40.80
31967;DHT22;18496;52.042;6.812;2023-06-14T00:29:12;27.30;40.80
31967;DHT22;18496;52.042;6.812;2023-06-14T00:31:15;27.30;40.60
31967;DHT22;18496;52.042;6.812;2023-06-14T00:33:19;27.30;41.50
31967;DHT22;18496;52.042;6.812;2023-06-14T00:35:24;27.20;41.20
31967;DHT22;18496;52.042;6.812;2023-06-14T00:37:27;27.20;41.80
31967;DHT22;18496;52.042;6.812;2023-06-14T00:39:31;27.00;41.90
31967;DHT22;18496;52.042;6.812;2023-06-14T00:41:35;27.00;41.30
31967;DHT22;18496;52.042;6.812;2023-06-14T00:43:38;26.90;41.70
31967;DHT22;18496;52.042;6.812;2023-06-14T00:45:42;26.90;42.40
31967;DHT22;18496;52.042;6.812;2023-06-14T00:47:46;26.90;41.60
31967;DHT22;18496;52.042;6.812;2023-06-14T00:49:51;26.80;41.70
31967;DHT22;18496;52.042;6.812;2023-06-14T00:51:56;26.70;42.00
31967;DHT22;18496;52.042;6.812;2023-06-14T00:54:00;26.70;42.00
31967;DHT22;18496;52.042;6.812;2023-06-14T00:56:04;26.60;42.30
31967;DHT22;18496;52.042;6.812;2023-06-14T00:58:08;26.60;42.60
31967;DHT22;18496;52.042;6.812;2023-06-14T01:00:12;26.60;42.30
31967;DHT22;18496;52.042;6.812;2023-06-14T01:02:17;26.50;42.20
31967;DHT22;18496;52.042;6.812;2023-06-14T01:04:21;26.50;42.50
31967;DHT22;18496;52.042;6.812;2023-06-14T01:09:27;26.50;43.20
31967;DHT22;18496;52.042;6.812;2023-06-14T01:11:36;26.50;42.50
31967;DHT22;18496;52.042;6.812;2023-06-14T01:13:45;26.50;42.80
31967;DHT22;18496;52.042;6.812;2023-06-14T01:15:50;26.40;42.80
31967;DHT22;18496;52.042;6.812;2023-06-14T01:17:54;26.40;43.10
31967;DHT22;18496;52.042;6.812;2023-06-14T01:20:04;26.40;42.90
31967;DHT22;18496;52.042;6.812;2023-06-14T01:22:13;26.30;43.50
31967;DHT22;18496;52.042;6.812;2023-06-14T01:24:18;26.30;42.90
31967;DHT22;18496;52.042;6.812;2023-06-14T01:26:29;26.30;43.00
31967;DHT22;18496;52.042;6.812;2023-06-14T01:28:34;26.20;43.10
31967;DHT22;18496;52.042;6.812;2023-06-14T01:30:40;26.10;43.20
31967;DHT22;18496;52.042;6.812;2023-06-14T01:32:49;26.10;43.50
31967;DHT22;18496;52.042;6.812;2023-06-14T01:34:54;26.10;43.70
31967;DHT22;18496;52.042;6.812;2023-06-14T01:37:00;26.00;43.50
31967;DHT22;18496;52.042;6.812;2023-06-14T01:39:05;26.00;43.70
31967;DHT22;18496;52.042;6.812;2023-06-14T01:41:10;26.00;44.20
31967;DHT22;18496;52.042;6.812;2023-06-14T01:43:15;26.00;44.50
31967;DHT22;18496;52.042;6.812;2023-06-14T01:45:20;25.90;45.10
31967;DHT22;18496;52.042;6.812;2023-06-14T01:47:24;25.90;44.20
31967;DHT22;18496;52.042;6.812;2023-06-14T01:49:28;25.90;44.00
31967;DHT22;18496;52.042;6.812;2023-06-14T01:51:31;25.80;44.50
31967;DHT22;18496;52.042;6.812;2023-06-14T01:53:35;25.80;44.30
31967;DHT22;18496;52.042;6.812;2023-06-14T01:55:39;25.70;44.90
31967;DHT22;18496;52.042;6.812;2023-06-14T01:57:46;25.80;44.70
31967;DHT22;18496;52.042;6.812;2023-06-14T01:59:50;25.70;44.30
31967;DHT22;18496;52.042;6.812;2023-06-14T02:01:54;25.60;44.40
31967;DHT22;18496;52.042;6.812;2023-06-14T02:03:58;25.50;45.00
31967;DHT22;18496;52.042;6.812;2023-06-14T02:06:01;25.50;44.90
31967;DHT22;18496;52.042;6.812;2023-06-14T02:08:06;25.50;45.00
31967;DHT22;18496;52.042;6.812;2023-06-14T02:10:09;25.40;44.90
31967;DHT22;18496;52.042;6.812;2023-06-14T02:12:13;25.40;44.90
31967;DHT22;18496;52.042;6.812;2023-06-14T02:14:17;25.30;45.00
31967;DHT22;18496;52.042;6.812;2023-06-14T02:16:21;25.40;46.10
31967;DHT22;18496;52.042;6.812;2023-06-14T02:18:25;25.40;45.40
31967;DHT22;18496;52.042;6.812;2023-06-14T02:20:30;25.40;45.50
31967;DHT22;18496;52.042;6.812;2023-06-14T02:22:34;25.40;45.70
31967;DHT22;18496;52.042;6.812;2023-06-14T02:24:37;25.40;46.10
31967;DHT22;18496;52.042;6.812;2023-06-14T02:26:45;25.30;45.40
31967;DHT22;18496;52.042;6.812;2023-06-14T02:28:52;25.30;45.30
31967;DHT22;18496;52.042;6.812;2023-06-14T02:30:55;25.20;45.40
31967;DHT22;18496;52.042;6.812;2023-06-14T02:33:00;25.20;45.40
31967;DHT22;18496;52.042;6.812;2023-06-14T02:35:04;25.20;45.60
31967;DHT22;18496;52.042;6.812;2023-06-14T02:37:08;25.20;45.80
31967;DHT22;18496;52.042;6.812;2023-06-14T02:39:12;25.20;45.70
31967;DHT22;18496;52.042;6.812;2023-06-14T02:41:16;25.20;45.70
31967;DHT22;18496;52.042;6.812;2023-06-14T02:43:19;25.20;45.80
31967;DHT22;18496;52.042;6.812;2023-06-14T02:45:23;25.10;45.70
31967;DHT22;18496;52.042;6.812;2023-06-14T02:47:27;25.00;45.60
31967;DHT22;18496;52.042;6.812;2023-06-14T02:49:31;25.00;46.30
31967;DHT22;18496;52.042;6.812;2023-06-14T02:51:34;25.00;46.00
31967;DHT22;18496;52.042;6.812;2023-06-14T02:53:38;24.90;46.40
31967;DHT22;18496;52.042;6.812;2023-06-14T02:55:43;25.00;46.00
31967;DHT22;18496;52.042;6.812;2023-06-14T02:57:47;24.90;46.20
31967;DHT22;18496;52.042;6.812;2023-06-14T02:59:52;24.80;46.50
31967;DHT22;18496;52.042;6.812;2023-06-14T03:01:56;24.80;46.50
31967;DHT22;18496;52.042;6.812;2023-06-14T03:04:03;24.70;46.60
31967;DHT22;18496;52.042;6.812;2023-06-14T03:06:10;24.60;46.70
31967;DHT22;18496;52.042;6.812;2023-06-14T03:08:17;24.60;46.70
31967;DHT22;18496;52.042;6.812;2023-06-14T03:10:23;24.70;46.80
31967;DHT22;18496;52.042;6.812;2023-06-14T03:12:28;24.70;47.10
31967;DHT22;18496;52.042;6.812;2023-06-14T03:14:32;24.70;46.80
31967;DHT22;18496;52.042;6.812;2023-06-14T03:16:36;24.70;46.80
31967;DHT22;18496;52.042;6.812;2023-06-14T03:18:41;24.60;47.70
31967;DHT22;18496;52.042;6.812;2023-06-14T03:20:45;24.70;47.60
31967;DHT22;18496;52.042;6.812;2023-06-14T03:22:49;24.70;47.70
31967;DHT22;18496;52.042;6.812;2023-06-14T03:24:53;24.70;47.10
31967;DHT22;18496;52.042;6.812;2023-06-14T03:26:58;24.70;47.30
31967;DHT22;18496;52.042;6.812;2023-06-14T03:29:04;24.70;47.30
31967;DHT22;18496;52.042;6.812;2023-06-14T03:31:08;24.60;47.10
31967;DHT22;18496;52.042;6.812;2023-06-14T03:33:13;24.60;47.30
31967;DHT22;18496;52.042;6.812;2023-06-14T03:35:19;24.60;47.50
31967;DHT22;18496;52.042;6.812;2023-06-14T03:37:25;24.50;47.30
31967;DHT22;18496;52.042;6.812;2023-06-14T03:39:30;24.40;47.50
31967;DHT22;18496;52.042;6.812;2023-06-14T03:41:34;24.30;47.60
31967;DHT22;18496;52.042;6.812;2023-06-14T03:43:37;24.30;48.10
31967;DHT22;18496;52.042;6.812;2023-06-14T03:45:41;24.30;47.90
31967;DHT22;18496;52.042;6.812;2023-06-14T03:47:46;24.30;48.10
31967;DHT22;18496;52.042;6.812;2023-06-14T03:49:50;24.10;48.20
31967;DHT22;18496;52.042;6.812;2023-06-14T03:51:54;24.10;48.70
31967;DHT22;18496;52.042;6.812;2023-06-14T03:54:01;24.20;48.30
31967;DHT22;18496;52.042;6.812;2023-06-14T03:56:05;24.10;48.70
31967;DHT22;18496;52.042;6.812;2023-06-14T03:58:16;24.10;48.50
31967;DHT22;18496;52.042;6.812;2023-06-14T04:00:20;24.00;48.50
31967;DHT22;18496;52.042;6.812;2023-06-14T04:02:24;24.00;48.80
31967;DHT22;18496;52.042;6.812;2023-06-14T04:04:28;23.90;49.20
31967;DHT22;18496;52.042;6.812;2023-06-14T04:06:33;23.90;49.00
31967;DHT22;18496;52.042;6.812;2023-06-14T04:08:37;23.90;49.10
31967;DHT22;18496;52.042;6.812;2023-06-14T04:10:43;23.80;49.20
31967;DHT22;18496;52.042;6.812;2023-06-14T04:12:46;23.80;49.90
31967;DHT22;18496;52.042;6.812;2023-06-14T04:14:50;23.80;49.30
31967;DHT22;18496;52.042;6.812;2023-06-14T04:16:55;23.80;49.30
31967;DHT22;18496;52.042;6.812;2023-06-14T04:18:59;23.80;49.80
31967;DHT22;18496;52.042;6.812;2023-06-14T04:21:03;23.90;49.70
31967;DHT22;18496;52.042;6.812;2023-06-14T04:23:15;23.90;49.40
31967;DHT22;18496;52.042;6.812;2023-06-14T04:25:22;23.80;50.20
31967;DHT22;18496;52.042;6.812;2023-06-14T04:27:27;23.90;49.70
31967;DHT22;18496;52.042;6.812;2023-06-14T04:29:32;23.90;50.10
31967;DHT22;18496;52.042;6.812;2023-06-14T04:31:40;23.90;49.50
31967;DHT22;18496;52.042;6.812;2023-06-14T04:33:46;23.90;49.40
31967;DHT22;18496;52.042;6.812;2023-06-14T04:35:54;23.90;50.40
31967;DHT22;18496;52.042;6.812;2023-06-14T04:37:59;23.90;50.20
31967;DHT22;18496;52.042;6.812;2023-06-14T04:40:05;24.00;49.60
31967;DHT22;18496;52.042;6.812;2023-06-14T04:42:10;23.90;50.00
31967;DHT22;18496;52.042;6.812;2023-06-14T04:44:15;23.90;49.90
31967;DHT22;18496;52.042;6.812;2023-06-14T04:46:22;23.90;51.10
31967;DHT22;18496;52.042;6.812;2023-06-14T04:48:26;24.00;50.10
31967;DHT22;18496;52.042;6.812;2023-06-14T04:50:31;23.90;50.40
31967;DHT22;18496;52.042;6.812;2023-06-14T04:52:36;24.00;50.30
31967;DHT22;18496;52.042;6.812;2023-06-14T04:54:42;24.00;50.00
31967;DHT22;18496;52.042;6.812;2023-06-14T04:56:46;24.00;50.10
31967;DHT22;18496;52.042;6.812;2023-06-14T04:58:50;24.00;50.00
31967;DHT22;18496;52.042;6.812;2023-06-14T05:00:55;24.00;50.40
31967;DHT22;18496;52.042;6.812;2023-06-14T05:03:02;24.00;50.00
31967;DHT22;18496;52.042;6.812;2023-06-14T05:05:09;24.00;50.20
31967;DHT22;18496;52.042;6.812;2023-06-14T05:07:13;24.10;52.20
31967;DHT22;18496;52.042;6.812;2023-06-14T05:09:18;24.10;50.70
31967;DHT22;18496;52.042;6.812;2023-06-14T05:11:23;24.10;50.50
31967;DHT22;18496;52.042;6.812;2023-06-14T05:13:30;24.10;50.50
31967;DHT22;18496;52.042;6.812;2023-06-14T05:15:36;24.10;50.50
31967;DHT22;18496;52.042;6.812;2023-06-14T05:17:40;24.10;50.70
31967;DHT22;18496;52.042;6.812;2023-06-14T05:19:44;24.20;51.10
31967;DHT22;18496;52.042;6.812;2023-06-14T05:21:48;24.20;50.40
31967;DHT22;18496;52.042;6.812;2023-06-14T05:23:51;24.20;50.40
31967;DHT22;18496;52.042;6.812;2023-06-14T05:25:55;24.30;51.10
31967;DHT22;18496;52.042;6.812;2023-06-14T05:28:00;24.30;51.20
31967;DHT22;18496;52.042;6.812;2023-06-14T05:30:04;24.30;50.00
31967;DHT22;18496;52.042;6.812;2023-06-14T05:32:08;24.30;50.20
31967;DHT22;18496;52.042;6.812;2023-06-14T05:34:12;24.40;50.70
31967;DHT22;18496;52.042;6.812;2023-06-14T05:36:15;24.40;50.40
31967;DHT22;18496;52.042;6.812;2023-06-14T05:38:19;24.50;51.00
31967;DHT22;18496;52.042;6.812;2023-06-14T05:40:23;24.50;49.70
31967;DHT22;18496;52.042;6.812;2023-06-14T05:42:26;24.60;50.20
31967;DHT22;18496;52.042;6.812;2023-06-14T05:44:30;24.60;49.70
31967;DHT22;18496;52.042;6.812;2023-06-14T05:46:33;24.60;50.40
31967;DHT22;18496;52.042;6.812;2023-06-14T05:48:37;24.60;49.70
31967;DHT22;18496;52.042;6.812;2023-06-14T05:50:41;24.60;50.50
31967;DHT22;18496;52.042;6.812;2023-06-14T05:52:44;24.70;50.00
31967;DHT22;18496;52.042;6.812;2023-06-14T05:54:48;24.70;50.40
31967;DHT22;18496;52.042;6.812;2023-06-14T05:56:52;24.80;49.80
31967;DHT22;18496;52.042;6.812;2023-06-14T05:58:56;24.70;49.40
31967;DHT22;18496;52.042;6.812;2023-06-14T06:01:00;24.70;49.50
31967;DHT22;18496;52.042;6.812;2023-06-14T06:03:04;24.70;49.80
31967;DHT22;18496;52.042;6.812;2023-06-14T06:05:08;24.70;49.80
31967;DHT22;18496;52.042;6.812;2023-06-14T06:07:12;24.80;49.50
31967;DHT22;18496;52.042;6.812;2023-06-14T06:09:15;24.80;49.40
31967;DHT22;18496;52.042;6.812;2023-06-14T06:11:19;24.80;49.50
31967;DHT22;18496;52.042;6.812;2023-06-14T06:13:23;24.80;49.50
31967;DHT22;18496;52.042;6.812;2023-06-14T06:15:27;24.80;49.50
31967;DHT22;18496;52.042;6.812;2023-06-14T06:17:30;24.90;49.20
31967;DHT22;18496;52.042;6.812;2023-06-14T06:19:34;24.90;49.00
31967;DHT22;18496;52.042;6.812;2023-06-14T06:21:38;24.90;48.70
31967;DHT22;18496;52.042;6.812;2023-06-14T06:23:41;25.00;48.40
31967;DHT22;18496;52.042;6.812;2023-06-14T06:25:45;25.00;49.00
31967;DHT22;18496;52.042;6.812;2023-06-14T06:27:48;25.00;48.70
31967;DHT22;18496;52.042;6.812;2023-06-14T06:29:52;25.00;49.70
31967;DHT22;18496;52.042;6.812;2023-06-14T06:31:56;25.10;49.30
31967;DHT22;18496;52.042;6.812;2023-06-14T06:34:00;25.10;48.30
31967;DHT22;18496;52.042;6.812;2023-06-14T06:36:03;25.10;49.30
31967;DHT22;18496;52.042;6.812;2023-06-14T06:38:07;25.10;48.70
31967;DHT22;18496;52.042;6.812;2023-06-14T06:40:12;25.20;49.30
31967;DHT22;18496;52.042;6.812;2023-06-14T06:42:16;25.20;49.10
31967;DHT22;18496;52.042;6.812;2023-06-14T06:44:20;25.20;48.50
31967;DHT22;18496;52.042;6.812;2023-06-14T06:46:27;25.20;48.70
31967;DHT22;18496;52.042;6.812;2023-06-14T06:48:30;25.20;48.30
31967;DHT22;18496;52.042;6.812;2023-06-14T06:50:34;25.30;48.90
31967;DHT22;18496;52.042;6.812;2023-06-14T06:52:38;25.30;48.50
31967;DHT22;18496;52.042;6.812;2023-06-14T06:54:41;25.30;48.50
31967;DHT22;18496;52.042;6.812;2023-06-14T06:56:45;25.30;48.40
31967;DHT22;18496;52.042;6.812;2023-06-14T06:58:49;25.40;48.40
31967;DHT22;18496;52.042;6.812;2023-06-14T07:00:53;25.40;49.00
31967;DHT22;18496;52.042;6.812;2023-06-14T07:02:57;25.40;48.30
31967;DHT22;18496;52.042;6.812;2023-06-14T07:05:00;25.40;48.00
31967;DHT22;18496;52.042;6.812;2023-06-14T07:07:04;25.40;48.20
31967;DHT22;18496;52.042;6.812;2023-06-14T07:09:08;25.40;48.20
31967;DHT22;18496;52.042;6.812;2023-06-14T07:11:15;25.40;48.20
31967;DHT22;18496;52.042;6.812;2023-06-14T07:13:19;25.40;48.60
31967;DHT22;18496;52.042;6.812;2023-06-14T07:15:23;25.40;48.00
31967;DHT22;18496;52.042;6.812;2023-06-14T07:17:26;25.40;48.00
31967;DHT22;18496;52.042;6.812;2023-06-14T07:19:30;25.40;48.30
31967;DHT22;18496;52.042;6.812;2023-06-14T07:21:35;25.40;48.20
31967;DHT22;18496;52.042;6.812;2023-06-14T07:23:40;25.40;48.70
31967;DHT22;18496;52.042;6.812;2023-06-14T07:25:44;25.40;48.60
31967;DHT22;18496;52.042;6.812;2023-06-14T07:27:48;25.40;48.80
31967;DHT22;18496;52.042;6.812;2023-06-14T07:29:52;25.50;48.30
31967;DHT22;18496;52.042;6.812;2023-06-14T07:31:55;25.50;49.00
31967;DHT22;18496;52.042;6.812;2023-06-14T07:33:59;25.50;48.10
31967;DHT22;18496;52.042;6.812;2023-06-14T07:36:03;25.50;47.60
31967;DHT22;18496;52.042;6.812;2023-06-14T07:38:06;25.50;47.70
31967;DHT22;18496;52.042;6.812;2023-06-14T07:40:10;25.50;48.40
31967;DHT22;18496;52.042;6.812;2023-06-14T07:42:14;25.50;48.00
31967;DHT22;18496;52.042;6.812;2023-06-14T07:44:18;25.50;48.10
31967;DHT22;18496;52.042;6.812;2023-06-14T07:46:22;25.60;47.80
31967;DHT22;18496;52.042;6.812;2023-06-14T07:48:26;25.60;47.90
31967;DHT22;18496;52.042;6.812;2023-06-14T07:50:29;25.60;48.70
31967;DHT22;18496;52.042;6.812;2023-06-14T07:52:33;25.70;48.30
31967;DHT22;18496;52.042;6.812;2023-06-14T07:54:37;25.70;48.30
31967;DHT22;18496;52.042;6.812;2023-06-14T07:56:41;25.80;47.90
31967;DHT22;18496;52.042;6.812;2023-06-14T07:58:45;25.90;48.30
31967;DHT22;18496;52.042;6.812;2023-06-14T08:00:49;25.90;47.10
31967;DHT22;18496;52.042;6.812;2023-06-14T08:02:53;25.90;47.40
31967;DHT22;18496;52.042;6.812;2023-06-14T08:05:02;26.00;47.30
31967;DHT22;18496;52.042;6.812;2023-06-14T08:07:06;26.00;46.80
31967;DHT22;18496;52.042;6.812;2023-06-14T08:09:10;26.00;46.80
31967;DHT22;18496;52.042;6.812;2023-06-14T08:11:14;26.00;47.10
31967;DHT22;18496;52.042;6.812;2023-06-14T08:13:18;26.10;46.70
31967;DHT22;18496;52.042;6.812;2023-06-14T08:15:22;26.10;46.70
31967;DHT22;18496;52.042;6.812;2023-06-14T08:17:25;26.20;46.10
31967;DHT22;18496;52.042;6.812;2023-06-14T08:19:29;26.20;46.00
31967;DHT22;18496;52.042;6.812;2023-06-14T08:21:33;26.20;45.90
31967;DHT22;18496;52.042;6.812;2023-06-14T08:23:39;26.20;46.10
31967;DHT22;18496;52.042;6.812;2023-06-14T08:25:44;26.30;46.40
31967;DHT22;18496;52.042;6.812;2023-06-14T08:27:48;26.30;47.10
31967;DHT22;18496;52.042;6.812;2023-06-14T08:29:51;26.40;46.00
31967;DHT22;18496;52.042;6.812;2023-06-14T08:31:55;26.40;45.70
31967;DHT22;18496;52.042;6.812;2023-06-14T08:33:59;26.40;45.70
31967;DHT22;18496;52.042;6.812;2023-06-14T08:36:02;26.50;45.80
31967;DHT22;18496;52.042;6.812;2023-06-14T08:38:06;26.60;45.70
31967;DHT22;18496;52.042;6.812;2023-06-14T08:40:21;26.60;44.70
31967;DHT22;18496;52.042;6.812;2023-06-14T08:42:26;26.70;45.20
31967;DHT22;18496;52.042;6.812;2023-06-14T08:44:30;26.70;44.80
31967;DHT22;18496;52.042;6.812;2023-06-14T08:46:34;26.80;44.30
31967;DHT22;18496;52.042;6.812;2023-06-14T08:48:39;26.90;45.80
31967;DHT22;18496;52.042;6.812;2023-06-14T08:50:44;26.90;44.10
31967;DHT22;18496;52.042;6.812;2023-06-14T08:52:53;26.90;43.40
31967;DHT22;18496;52.042;6.812;2023-06-14T08:54:57;26.90;43.10
31967;DHT22;18496;52.042;6.812;2023-06-14T08:57:04;26.90;42.60
31967;DHT22;18496;52.042;6.812;2023-06-14T08:59:10;26.90;42.90
31967;DHT22;18496;52.042;6.812;2023-06-14T09:01:14;26.90;42.50
31967;DHT22;18496;52.042;6.812;2023-06-14T09:03:20;26.90;42.40
31967;DHT22;18496;52.042;6.812;2023-06-14T09:05:25;26.90;43.20
31967;DHT22;18496;52.042;6.812;2023-06-14T09:07:28;26.90;43.00
31967;DHT22;18496;52.042;6.812;2023-06-14T09:09:32;26.90;42.70
31967;DHT22;18496;52.042;6.812;2023-06-14T09:11:37;26.90;43.40
31967;DHT22;18496;52.042;6.812;2023-06-14T09:13:41;27.00;42.80
31967;DHT22;18496;52.042;6.812;2023-06-14T09:15:45;27.00;43.10
31967;DHT22;18496;52.042;6.812;2023-06-14T09:17:49;27.00;42.40
31967;DHT22;18496;52.042;6.812;2023-06-14T09:19:55;27.00;42.90
31967;DHT22;18496;52.042;6.812;2023-06-14T09:21:59;27.10;42.20
31967;DHT22;18496;52.042;6.812;2023-06-14T09:24:04;27.10;42.40
31967;DHT22;18496;52.042;6.812;2023-06-14T09:28:16;27.10;43.50
31967;DHT22;18496;52.042;6.812;2023-06-14T09:30:20;27.20;42.80
31967;DHT22;18496;52.042;6.812;2023-06-14T09:32:25;27.20;43.30
31967;DHT22;18496;52.042;6.812;2023-06-14T09:34:28;27.20;42.90
31967;DHT22;18496;52.042;6.812;2023-06-14T09:36:32;27.30;43.40
31967;DHT22;18496;52.042;6.812;2023-06-14T09:38:36;27.40;43.50
31967;DHT22;18496;52.042;6.812;2023-06-14T09:40:39;27.50;43.00
31967;DHT22;18496;52.042;6.812;2023-06-14T09:42:43;27.40;42.40
31967;DHT22;18496;52.042;6.812;2023-06-14T09:44:48;27.40;42.60
31967;DHT22;18496;52.042;6.812;2023-06-14T09:46:53;27.40;42.50
31967;DHT22;18496;52.042;6.812;2023-06-14T09:49:00;27.50;43.20
31967;DHT22;18496;52.042;6.812;2023-06-14T09:51:04;27.50;42.90
31967;DHT22;18496;52.042;6.812;2023-06-14T09:53:10;27.70;43.10
31967;DHT22;18496;52.042;6.812;2023-06-14T09:55:16;27.70;43.10
31967;DHT22;18496;52.042;6.812;2023-06-14T09:57:23;27.70;43.40
31967;DHT22;18496;52.042;6.812;2023-06-14T09:59:31;27.80;43.00
31967;DHT22;18496;52.042;6.812;2023-06-14T10:01:41;27.80;42.10
31967;DHT22;18496;52.042;6.812;2023-06-14T10:03:46;27.80;42.40
31967;DHT22;18496;52.042;6.812;2023-06-14T10:05:50;27.90;43.10
31967;DHT22;18496;52.042;6.812;2023-06-14T10:08:00;27.90;43.50
31967;DHT22;18496;52.042;6.812;2023-06-14T10:10:07;28.10;44.40
31967;DHT22;18496;52.042;6.812;2023-06-14T10:12:11;28.20;42.70
31967;DHT22;18496;52.042;6.812;2023-06-14T10:14:19;28.20;43.00
31967;DHT22;18496;52.042;6.812;2023-06-14T10:16:32;28.20;43.20
31967;DHT22;18496;52.042;6.812;2023-06-14T10:18:51;28.30;43.10
31967;DHT22;18496;52.042;6.812;2023-06-14T10:21:32;28.30;43.30
31967;DHT22;18496;52.042;6.812;2023-06-14T10:23:42;28.40;43.60
31967;DHT22;18496;52.042;6.812;2023-06-14T10:25:50;28.40;43.20
31967;DHT22;18496;52.042;6.812;2023-06-14T10:28:23;28.40;42.30
31967;DHT22;18496;52.042;6.812;2023-06-14T10:30:26;28.40;42.50
31967;DHT22;18496;52.042;6.812;2023-06-14T10:32:31;28.30;42.40
31967;DHT22;18496;52.042;6.812;2023-06-14T10:34:38;28.30;42.70
31967;DHT22;18496;52.042;6.812;2023-06-14T10:36:42;28.30;42.80
31967;DHT22;18496;52.042;6.812;2023-06-14T10:38:46;28.30;42.30
31967;DHT22;18496;52.042;6.812;2023-06-14T10:41:00;28.30;42.50
31967;DHT22;18496;52.042;6.812;2023-06-14T10:43:23;28.30;42.20
31967;DHT22;18496;52.042;6.812;2023-06-14T10:45:27;28.40;42.30
31967;DHT22;18496;52.042;6.812;2023-06-14T10:47:34;28.50;43.00
31967;DHT22;18496;52.042;6.812;2023-06-14T10:49:46;28.60;42.40
31967;DHT22;18496;52.042;6.812;2023-06-14T10:51:53;28.70;41.70
31967;DHT22;18496;52.042;6.812;2023-06-14T10:54:00;28.80;41.60
31967;DHT22;18496;52.042;6.812;2023-06-14T10:56:06;28.90;41.80
31967;DHT22;18496;52.042;6.812;2023-06-14T10:58:10;29.00;42.20
31967;DHT22;18496;52.042;6.812;2023-06-14T11:00:14;29.00;41.40
31967;DHT22;18496;52.042;6.812;2023-06-14T11:02:45;29.10;42.20
31967;DHT22;18496;52.042;6.812;2023-06-14T11:04:51;29.00;40.60
31967;DHT22;18496;52.042;6.812;2023-06-14T11:09:50;29.10;41.50
31967;DHT22;18496;52.042;6.812;2023-06-14T11:11:56;29.20;40.90
31967;DHT22;18496;52.042;6.812;2023-06-14T11:14:00;29.20;41.20
31967;DHT22;18496;52.042;6.812;2023-06-14T11:16:14;29.30;40.10
31967;DHT22;18496;52.042;6.812;2023-06-14T11:18:18;29.40;40.60
31967;DHT22;18496;52.042;6.812;2023-06-14T11:20:25;29.40;40.00
31967;DHT22;18496;52.042;6.812;2023-06-14T11:22:29;29.50;40.50
31967;DHT22;18496;52.042;6.812;2023-06-14T11:24:42;29.60;41.00
31967;DHT22;18496;52.042;6.812;2023-06-14T11:26:47;29.70;40.60
31967;DHT22;18496;52.042;6.812;2023-06-14T11:28:55;29.60;39.60
31967;DHT22;18496;52.042;6.812;2023-06-14T11:31:00;29.60;39.80
31967;DHT22;18496;52.042;6.812;2023-06-14T11:33:04;29.70;39.60
31967;DHT22;18496;52.042;6.812;2023-06-14T11:35:09;29.70;40.30
31967;DHT22;18496;52.042;6.812;2023-06-14T11:37:12;29.70;39.70
31967;DHT22;18496;52.042;6.812;2023-06-14T11:39:16;29.70;40.10
31967;DHT22;18496;52.042;6.812;2023-06-14T11:41:20;29.80;40.20
31967;DHT22;18496;52.042;6.812;2023-06-14T11:43:28;29.90;39.40
31967;DHT22;18496;52.042;6.812;2023-06-14T11:45:32;29.90;38.90
31967;DHT22;18496;52.042;6.812;2023-06-14T11:47:37;30.00;39.00
31967;DHT22;18496;52.042;6.812;2023-06-14T11:49:41;30.00;38.80
31967;DHT22;18496;52.042;6.812;2023-06-14T11:51:45;30.10;40.00
31967;DHT22;18496;52.042;6.812;2023-06-14T11:53:49;30.20;39.90
31967;DHT22;18496;52.042;6.812;2023-06-14T11:55:53;30.40;40.30
31967;DHT22;18496;52.042;6.812;2023-06-14T11:57:56;30.40;39.50
31967;DHT22;18496;52.042;6.812;2023-06-14T12:00:03;30.60;38.70
31967;DHT22;18496;52.042;6.812;2023-06-14T12:02:16;30.60;38.60
31967;DHT22;18496;52.042;6.812;2023-06-14T12:04:24;30.70;38.00
31967;DHT22;18496;52.042;6.812;2023-06-14T12:06:30;30.80;38.40
31967;DHT22;18496;52.042;6.812;2023-06-14T12:08:37;30.90;38.40
31967;DHT22;18496;52.042;6.812;2023-06-14T12:10:44;31.00;39.30
31967;DHT22;18496;52.042;6.812;2023-06-14T12:12:48;31.10;38.40
31967;DHT22;18496;52.042;6.812;2023-06-14T12:14:54;31.10;38.40
31967;DHT22;18496;52.042;6.812;2023-06-14T12:17:08;31.10;38.30
31967;DHT22;18496;52.042;6.812;2023-06-14T12:19:16;31.10;38.30
31967;DHT22;18496;52.042;6.812;2023-06-14T12:21:23;31.20;38.70
31967;DHT22;18496;52.042;6.812;2023-06-14T12:23:27;31.30;37.80
31967;DHT22;18496;52.042;6.812;2023-06-14T12:25:35;31.30;38.10
31967;DHT22;18496;52.042;6.812;2023-06-14T12:27:40;31.50;38.00
31967;DHT22;18496;52.042;6.812;2023-06-14T12:29:43;31.60;38.20
31967;DHT22;18496;52.042;6.812;2023-06-14T12:31:47;31.70;38.10
31967;DHT22;18496;52.042;6.812;2023-06-14T12:33:51;31.80;37.00
31967;DHT22;18496;52.042;6.812;2023-06-14T12:35:55;31.80;36.80
31967;DHT22;18496;52.042;6.812;2023-06-14T12:38:00;31.90;37.90
31967;DHT22;18496;52.042;6.812;2023-06-14T12:40:04;32.00;38.00
31967;DHT22;18496;52.042;6.812;2023-06-14T12:42:09;32.10;39.30
31967;DHT22;18496;52.042;6.812;2023-06-14T12:44:13;32.20;38.30
31967;DHT22;18496;52.042;6.812;2023-06-14T12:46:17;32.30;39.50
31967;DHT22;18496;52.042;6.812;2023-06-14T12:48:21;32.40;37.80
31967;DHT22;18496;52.042;6.812;2023-06-14T12:50:25;32.40;37.70
31967;DHT22;18496;52.042;6.812;2023-06-14T12:52:29;32.40;37.80
31967;DHT22;18496;52.042;6.812;2023-06-14T12:54:33;32.40;37.80
31967;DHT22;18496;52.042;6.812;2023-06-14T12:56:37;32.30;37.60
31967;DHT22;18496;52.042;6.812;2023-06-14T12:58:41;32.40;37.80
31967;DHT22;18496;52.042;6.812;2023-06-14T13:00:45;32.50;37.90
31967;DHT22;18496;52.042;6.812;2023-06-14T13:02:49;32.60;37.10
31967;DHT22;18496;52.042;6.812;2023-06-14T13:04:54;32.60;37.20
31967;DHT22;18496;52.042;6.812;2023-06-14T13:06:57;32.60;36.50
31967;DHT22;18496;52.042;6.812;2023-06-14T13:09:01;32.70;36.90
31967;DHT22;18496;52.042;6.812;2023-06-14T13:11:05;32.70;36.20
31967;DHT22;18496;52.042;6.812;2023-06-14T13:13:08;32.70;36.90
31967;DHT22;18496;52.042;6.812;2023-06-14T13:15:12;32.80;36.40
31967;DHT22;18496;52.042;6.812;2023-06-14T13:17:16;32.80;36.30